createdAt,value
2017-12-26T00:00:49.761Z,2.90
2017-12-26T00:03:18.125Z,2.83
2017-12-26T00:05:46.435Z,3.30
2017-12-26T00:08:14.780Z,3.47
2017-12-26T00:10:43.140Z,3.00
2017-12-26T00:13:12.260Z,3.20
2017-12-26T00:15:40.818Z,2.97
2017-12-26T00:18:09.487Z,3.50
2017-12-26T00:20:41.482Z,3.00
2017-12-26T00:23:10.042Z,3.50
2017-12-26T00:25:38.758Z,3.10
2017-12-26T00:28:07.150Z,2.87
2017-12-26T00:30:35.525Z,3.00
2017-12-26T00:33:03.885Z,3.40
2017-12-26T00:35:32.204Z,3.23
2017-12-26T00:38:01.358Z,3.40
2017-12-26T00:40:29.777Z,3.47
2017-12-26T00:42:58.151Z,3.40
2017-12-26T00:45:27.565Z,3.80
2017-12-26T00:47:56.666Z,3.57
2017-12-26T00:50:25.006Z,3.70
2017-12-26T00:52:53.362Z,3.63
2017-12-26T00:55:21.718Z,4.00
2017-12-26T00:57:50.073Z,3.70
2017-12-26T01:00:19.195Z,3.00
2017-12-26T01:02:47.546Z,3.70
2017-12-26T01:05:15.892Z,3.67
2017-12-26T01:07:44.450Z,3.80
2017-12-26T01:10:12.805Z,3.50
2017-12-26T01:12:41.923Z,3.33
2017-12-26T01:15:10.289Z,3.70
2017-12-26T01:17:38.642Z,3.97
2017-12-26T01:20:06.971Z,3.97
2017-12-26T01:22:35.319Z,4.07
2017-12-26T01:25:03.686Z,3.93
2017-12-26T01:27:32.000Z,3.80
2017-12-26T01:30:00.532Z,4.13
2017-12-26T01:32:29.655Z,4.30
2017-12-26T01:34:58.042Z,3.30
2017-12-26T01:37:26.410Z,4.03
2017-12-26T01:39:54.790Z,3.80
2017-12-26T01:42:23.167Z,3.70
2017-12-26T01:44:51.584Z,4.27
2017-12-26T01:47:19.918Z,3.33
2017-12-26T01:49:49.089Z,4.45
2017-12-26T01:52:17.815Z,4.13
2017-12-26T01:54:46.154Z,4.28
2017-12-26T01:57:14.496Z,4.07
2017-12-26T01:59:42.827Z,4.13
2017-12-26T02:02:12.887Z,4.10
2017-12-26T02:04:41.273Z,3.97
2017-12-26T02:07:09.683Z,4.10
2017-12-26T02:09:38.083Z,4.60
2017-12-26T02:12:07.185Z,4.60
2017-12-26T02:14:36.655Z,4.57
2017-12-26T02:17:05.023Z,4.93
2017-12-26T02:19:33.534Z,5.40
2017-12-26T02:22:01.930Z,5.20
2017-12-26T02:24:31.108Z,5.20
2017-12-26T02:26:59.496Z,5.78
2017-12-26T02:29:27.974Z,6.07
2017-12-26T02:31:56.396Z,5.93
2017-12-26T02:34:25.049Z,6.57
2017-12-26T02:36:54.245Z,6.43
2017-12-26T02:39:22.630Z,6.18
2017-12-26T02:41:51.865Z,7.03
2017-12-26T02:44:21.050Z,7.60
2017-12-26T02:46:49.578Z,8.20
2017-12-26T02:49:18.076Z,8.20
2017-12-26T02:51:46.440Z,7.55
2017-12-26T02:54:14.843Z,7.65
2017-12-26T02:56:43.240Z,8.50
2017-12-26T02:59:12.005Z,9.40
2017-12-26T03:01:40.430Z,7.65
2017-12-26T03:04:08.979Z,8.18
2017-12-26T03:06:38.174Z,8.68
2017-12-26T03:09:07.386Z,9.20
2017-12-26T03:11:36.637Z,9.48
2017-12-26T03:14:05.071Z,8.80
2017-12-26T03:16:34.352Z,8.82
2017-12-26T03:19:03.627Z,9.13
2017-12-26T03:21:32.126Z,9.25
2017-12-26T03:24:00.524Z,9.27
2017-12-26T03:26:28.977Z,9.30
2017-12-26T03:28:57.481Z,10.05
2017-12-26T03:31:25.955Z,9.30
2017-12-26T03:33:54.349Z,9.17
2017-12-26T03:36:23.529Z,10.15
2017-12-26T03:38:52.041Z,9.70
2017-12-26T03:41:20.504Z,9.13
2017-12-26T03:43:49.190Z,9.10
2017-12-26T03:46:17.584Z,9.80
2017-12-26T03:48:45.988Z,10.38
2017-12-26T03:51:14.509Z,8.70
2017-12-26T03:53:43.022Z,8.50
2017-12-26T03:56:11.538Z,9.63
2017-12-26T03:58:39.965Z,9.35
2017-12-26T04:01:08.466Z,10.18
2017-12-26T04:03:37.735Z,9.85
2017-12-26T04:06:06.520Z,10.02
2017-12-26T04:08:35.037Z,9.88
2017-12-26T04:11:04.222Z,10.20
2017-12-26T04:13:32.712Z,10.98
2017-12-26T04:16:02.012Z,11.73
2017-12-26T04:18:30.407Z,11.00
2017-12-26T04:20:59.650Z,10.30
2017-12-26T04:23:28.298Z,11.82
2017-12-26T04:25:56.676Z,11.68
2017-12-26T04:28:26.417Z,11.65
2017-12-26T04:30:54.850Z,11.55
2017-12-26T04:33:23.330Z,11.27
2017-12-26T04:35:51.812Z,10.63
2017-12-26T04:38:21.091Z,11.60
2017-12-26T04:40:49.534Z,11.52
2017-12-26T04:43:18.046Z,11.25
2017-12-26T04:45:46.560Z,10.45
2017-12-26T04:48:14.977Z,10.70
2017-12-26T04:50:43.522Z,12.40
2017-12-26T04:53:11.892Z,11.93
2017-12-26T04:55:40.332Z,12.57
2017-12-26T04:58:08.729Z,12.02
2017-12-26T05:00:37.157Z,11.68
2017-12-26T05:03:06.369Z,11.65
2017-12-26T05:05:35.648Z,11.40
2017-12-26T05:11:01.336Z,9.85
2017-12-26T05:13:29.741Z,11.98
2017-12-26T05:15:58.145Z,12.00
2017-12-26T05:18:26.567Z,11.25
2017-12-26T05:20:55.004Z,11.75
2017-12-26T05:23:23.412Z,11.95
2017-12-26T05:26:11.466Z,12.50
2017-12-26T05:28:40.589Z,12.07
2017-12-26T05:31:08.966Z,12.98
2017-12-26T05:33:37.492Z,12.95
2017-12-26T05:36:05.837Z,11.65
2017-12-26T05:38:34.366Z,11.88
2017-12-26T05:41:02.766Z,12.55
2017-12-26T05:43:31.317Z,12.90
2017-12-26T05:46:00.426Z,12.85
2017-12-26T05:48:28.915Z,13.15
2017-12-26T05:50:58.016Z,11.12
2017-12-26T05:53:26.383Z,12.27
2017-12-26T05:55:54.818Z,12.32
2017-12-26T06:01:39.125Z,11.93
2017-12-26T06:04:07.465Z,13.00
2017-12-26T06:06:35.844Z,13.32
2017-12-26T06:09:04.614Z,12.75
2017-12-26T06:11:32.967Z,12.88
2017-12-26T06:14:01.280Z,12.80
2017-12-26T06:16:29.625Z,12.55
2017-12-26T06:18:58.727Z,11.85
2017-12-26T06:21:27.810Z,13.40
2017-12-26T06:23:56.927Z,12.90
2017-12-26T06:26:25.282Z,12.00
2017-12-26T06:28:53.616Z,11.77
2017-12-26T06:31:22.564Z,11.10
2017-12-26T06:33:51.723Z,12.02
2017-12-26T06:36:20.072Z,12.10
2017-12-26T06:38:48.490Z,12.00
2017-12-26T06:41:16.858Z,13.23
2017-12-26T06:43:45.284Z,11.57
2017-12-26T06:46:13.664Z,11.27
2017-12-26T06:48:42.804Z,11.35
2017-12-26T06:51:11.200Z,11.50
2017-12-26T06:53:39.815Z,10.68
2017-12-26T06:56:08.912Z,11.12
2017-12-26T06:58:38.032Z,11.98
2017-12-26T07:01:06.423Z,11.02
2017-12-26T07:03:34.928Z,10.52
2017-12-26T07:06:03.238Z,12.00
2017-12-26T07:08:31.599Z,10.98
2017-12-26T07:10:59.982Z,10.68
2017-12-26T07:13:28.369Z,10.93
2017-12-26T07:15:57.059Z,10.63
2017-12-26T07:18:26.198Z,11.30
2017-12-26T07:21:00.111Z,9.82
2017-12-26T07:23:28.560Z,11.23
2017-12-26T07:25:57.033Z,9.70
2017-12-26T07:28:26.219Z,10.25
2017-12-26T07:30:54.606Z,9.95
2017-12-26T07:33:22.985Z,10.18
2017-12-26T07:35:51.567Z,10.02
2017-12-26T07:38:19.985Z,10.20
2017-12-26T07:40:48.325Z,9.80
2017-12-26T07:43:16.707Z,11.07
2017-12-26T07:45:45.242Z,9.75
2017-12-26T07:48:13.789Z,9.57
2017-12-26T07:50:43.004Z,9.38
2017-12-26T07:53:11.385Z,9.30
2017-12-26T07:55:39.836Z,9.50
2017-12-26T07:58:08.518Z,9.25
2017-12-26T08:00:36.975Z,9.43
2017-12-26T08:03:05.480Z,11.30
2017-12-26T08:05:34.092Z,10.23
2017-12-26T08:08:02.550Z,10.20
2017-12-26T08:10:32.160Z,8.98
2017-12-26T08:13:00.712Z,10.60
2017-12-26T08:15:29.128Z,9.90
2017-12-26T08:17:57.690Z,9.57
2017-12-26T08:20:26.513Z,9.57
2017-12-26T08:22:55.906Z,9.97
2017-12-26T08:25:25.193Z,8.80
2017-12-26T08:27:53.783Z,9.87
2017-12-26T08:30:22.258Z,9.63
2017-12-26T08:32:50.646Z,9.73
2017-12-26T08:35:19.875Z,10.70
2017-12-26T08:37:48.406Z,10.50
2017-12-26T08:40:16.904Z,10.47
2017-12-26T08:42:45.527Z,10.93
2017-12-26T08:45:13.969Z,10.90
2017-12-26T08:47:42.580Z,10.23
2017-12-26T08:50:11.313Z,10.77
2017-12-26T08:52:40.269Z,10.03
2017-12-26T08:55:08.739Z,10.20
2017-12-26T08:57:37.162Z,9.97
2017-12-26T09:00:05.710Z,10.07
2017-12-26T09:02:34.227Z,10.13
2017-12-26T09:05:03.198Z,9.38
2017-12-26T09:07:31.743Z,11.47
2017-12-26T09:10:00.976Z,10.25
2017-12-26T09:12:29.494Z,9.50
2017-12-26T09:14:58.023Z,10.13
2017-12-26T09:17:27.255Z,10.67
2017-12-26T09:19:56.025Z,9.70
2017-12-26T09:22:24.419Z,10.67
2017-12-26T09:24:52.790Z,9.83
2017-12-26T09:27:21.852Z,11.30
2017-12-26T09:29:50.277Z,9.30
2017-12-26T09:32:18.720Z,9.33
2017-12-26T09:34:47.271Z,9.90
2017-12-26T09:37:15.826Z,10.47
2017-12-26T09:39:44.215Z,10.43
2017-12-26T09:42:12.672Z,10.13
2017-12-26T09:44:41.117Z,10.70
2017-12-26T09:47:09.504Z,9.50
2017-12-26T09:49:38.901Z,10.27
2017-12-26T09:52:07.321Z,9.83
2017-12-26T09:54:35.763Z,10.40
2017-12-26T09:57:04.247Z,10.13
2017-12-26T09:59:32.590Z,9.07
2017-12-26T10:02:00.971Z,8.80
2017-12-26T10:04:29.352Z,8.60
2017-12-26T10:06:57.708Z,8.27
2017-12-26T10:09:26.229Z,8.10
2017-12-26T10:11:54.866Z,8.43
2017-12-26T10:14:23.207Z,7.40
2017-12-26T10:16:51.688Z,7.70
2017-12-26T10:19:20.272Z,7.60
2017-12-26T10:21:48.690Z,8.10
2017-12-26T10:24:17.105Z,8.27
2017-12-26T10:26:45.528Z,7.90
2017-12-26T10:29:14.739Z,8.00
2017-12-26T10:31:43.137Z,6.63
2017-12-26T10:34:11.817Z,7.20
2017-12-26T10:36:40.181Z,6.73
2017-12-26T10:39:08.704Z,6.80
2017-12-26T10:41:37.322Z,7.10
2017-12-26T10:44:05.712Z,6.23
2017-12-26T10:46:34.194Z,7.07
2017-12-26T10:49:02.672Z,6.90
2017-12-26T10:51:31.055Z,5.67
2017-12-26T10:53:59.503Z,6.03
2017-12-26T10:56:28.491Z,6.17
2017-12-26T10:58:56.903Z,5.80
2017-12-26T11:01:25.287Z,5.57
2017-12-26T11:03:53.765Z,6.40
2017-12-26T11:06:22.475Z,3.47
2017-12-26T11:08:50.875Z,4.17
2017-12-26T11:11:19.401Z,4.70
2017-12-26T11:13:47.810Z,4.10
2017-12-26T11:16:16.953Z,4.50
2017-12-26T11:18:45.599Z,4.20
2017-12-26T11:21:13.960Z,4.57
2017-12-26T11:23:42.346Z,4.13
2017-12-26T11:26:10.794Z,3.90
2017-12-26T11:28:39.410Z,4.47
2017-12-26T11:31:07.892Z,4.33
2017-12-26T11:33:37.186Z,3.20
2017-12-26T11:36:05.596Z,2.20
2017-12-26T11:38:34.150Z,2.70
2017-12-26T11:41:02.703Z,2.67
2017-12-26T11:43:31.116Z,2.10
2017-12-26T11:46:00.238Z,2.50
2017-12-26T11:48:28.685Z,2.03
2017-12-26T11:50:57.179Z,2.80
2017-12-26T11:53:25.666Z,2.67
2017-12-26T11:55:54.075Z,2.47
2017-12-26T11:58:22.423Z,2.93
2017-12-26T12:00:51.589Z,2.70
2017-12-26T12:03:20.300Z,2.87
2017-12-26T12:05:48.701Z,2.57
2017-12-26T12:08:17.923Z,2.37
2017-12-26T12:10:46.333Z,2.70
2017-12-26T12:13:14.703Z,2.40
2017-12-26T12:15:43.205Z,3.03
2017-12-26T12:18:11.599Z,3.13
2017-12-26T12:20:40.005Z,2.67
2017-12-26T12:23:09.176Z,3.07
2017-12-26T12:25:38.123Z,2.50
2017-12-26T12:28:06.627Z,2.90
2017-12-26T12:30:35.121Z,2.73
2017-12-26T12:33:03.647Z,3.67
2017-12-26T12:35:32.103Z,2.57
2017-12-26T12:38:00.435Z,2.47
2017-12-26T12:40:28.786Z,2.50
2017-12-26T12:42:57.095Z,3.00
2017-12-26T12:45:25.448Z,2.97
2017-12-26T12:47:53.918Z,3.03
2017-12-26T12:50:23.042Z,2.77
2017-12-26T12:52:51.480Z,3.10
2017-12-26T12:55:20.687Z,2.80
2017-12-26T12:57:49.017Z,2.83
2017-12-26T13:00:17.348Z,3.00
2017-12-26T13:02:46.551Z,2.70
2017-12-26T13:05:15.655Z,2.97
2017-12-26T13:07:44.961Z,3.50
2017-12-26T13:10:13.627Z,3.60
2017-12-26T13:12:42.715Z,3.17
2017-12-26T13:15:11.047Z,3.37
2017-12-26T13:17:39.412Z,3.27
2017-12-26T13:20:07.744Z,3.40
2017-12-26T13:22:36.123Z,3.30
2017-12-26T13:25:04.494Z,4.00
2017-12-26T13:27:32.807Z,3.53
2017-12-26T13:30:01.140Z,3.77
2017-12-26T13:32:29.814Z,3.30
2017-12-26T13:34:58.175Z,3.10
2017-12-26T13:37:26.531Z,3.37
2017-12-26T13:39:54.979Z,3.07
2017-12-26T13:42:23.330Z,2.90
2017-12-26T13:44:51.691Z,2.97
2017-12-26T13:47:20.092Z,2.50
2017-12-26T13:49:48.497Z,3.13
2017-12-26T13:52:16.886Z,2.90
2017-12-26T13:54:46.615Z,3.33
2017-12-26T13:57:14.953Z,2.63
2017-12-26T13:59:43.305Z,3.23
2017-12-26T14:02:11.686Z,2.97
2017-12-26T14:04:40.024Z,3.60
2017-12-26T14:07:17.220Z,3.20
2017-12-26T14:09:46.726Z,3.03
2017-12-26T14:12:15.092Z,2.93
2017-12-26T14:14:43.739Z,2.70
2017-12-26T14:17:12.092Z,2.60
2017-12-26T14:19:40.414Z,3.33
2017-12-26T14:22:08.768Z,2.93
2017-12-26T14:24:37.094Z,3.23
2017-12-26T14:27:05.423Z,2.90
2017-12-26T14:29:33.753Z,3.23
2017-12-26T14:32:02.879Z,3.07
2017-12-26T14:34:31.191Z,2.90
2017-12-26T14:37:16.765Z,2.77
2017-12-26T14:39:45.110Z,2.57
2017-12-26T14:42:13.482Z,2.80
2017-12-26T14:44:41.836Z,2.90
2017-12-26T14:47:10.921Z,2.90
2017-12-26T14:49:39.283Z,3.10
2017-12-26T14:52:07.668Z,2.67
2017-12-26T14:54:36.084Z,2.83
2017-12-26T14:57:04.421Z,3.07
2017-12-26T14:59:33.092Z,2.90
2017-12-26T15:02:01.437Z,3.30
2017-12-26T15:04:29.791Z,3.37
2017-12-26T15:06:58.158Z,3.33
2017-12-26T15:09:26.470Z,3.90
2017-12-26T15:11:55.699Z,3.90
2017-12-26T15:14:24.563Z,3.63
2017-12-26T15:16:52.915Z,3.47
2017-12-26T15:19:21.413Z,3.00
2017-12-26T15:21:49.853Z,3.55
2017-12-26T15:24:18.232Z,3.33
2017-12-26T15:26:46.621Z,3.60
2017-12-26T15:29:14.969Z,3.07
2017-12-26T15:31:43.316Z,3.37
2017-12-26T15:34:11.655Z,3.30
2017-12-26T15:36:40.034Z,3.63
2017-12-26T15:39:08.418Z,3.53
2017-12-26T15:41:36.771Z,4.63
2017-12-26T15:44:05.415Z,3.33
2017-12-26T15:46:34.522Z,3.60
2017-12-26T15:49:03.626Z,4.00
2017-12-26T15:51:32.942Z,3.60
2017-12-26T15:54:01.325Z,4.67
2017-12-26T15:56:29.671Z,4.60
2017-12-26T15:58:58.011Z,4.73
2017-12-26T16:01:26.334Z,4.67
2017-12-26T16:03:56.385Z,4.40
2017-12-26T16:06:24.980Z,4.40
2017-12-26T16:08:53.314Z,4.25
2017-12-26T16:11:21.656Z,4.10
2017-12-26T16:13:49.999Z,4.20
2017-12-26T16:16:18.388Z,4.40
2017-12-26T16:18:46.724Z,3.60
2017-12-26T16:21:15.873Z,4.50
2017-12-26T16:23:44.196Z,3.80
2017-12-26T16:26:13.269Z,4.12
2017-12-26T16:28:41.709Z,3.58
2017-12-26T16:31:10.067Z,3.60
2017-12-26T16:33:38.368Z,3.40
2017-12-26T16:36:06.750Z,3.60
2017-12-26T16:38:35.081Z,3.60
2017-12-26T16:41:04.174Z,4.10
2017-12-26T16:43:33.322Z,3.87
2017-12-26T16:46:01.640Z,3.30
2017-12-26T16:48:29.980Z,3.20
2017-12-26T16:50:58.875Z,3.12
2017-12-26T16:53:27.233Z,5.03
2017-12-26T16:55:55.577Z,3.80
2017-12-26T16:58:23.940Z,3.90
2017-12-26T17:00:52.258Z,3.70
2017-12-26T17:03:20.601Z,3.40
2017-12-26T17:05:48.922Z,3.35
2017-12-26T17:08:17.254Z,3.40
2017-12-26T17:10:45.592Z,3.08
2017-12-26T17:13:14.318Z,3.00
2017-12-26T17:15:42.661Z,2.83
2017-12-26T17:21:09.088Z,3.70
2017-12-26T17:23:37.421Z,2.78
2017-12-26T17:26:05.747Z,3.23
2017-12-26T17:28:34.461Z,3.05
2017-12-26T17:31:02.836Z,3.20
2017-12-26T17:33:31.242Z,2.80
2017-12-26T17:35:59.832Z,2.67
2017-12-26T17:38:28.151Z,3.30
2017-12-26T17:40:56.504Z,3.03
2017-12-26T17:43:25.893Z,2.83
2017-12-26T17:45:54.279Z,3.08
2017-12-26T17:48:22.764Z,3.30
2017-12-26T17:50:51.743Z,3.90
2017-12-26T17:53:20.063Z,3.10
2017-12-26T17:55:48.412Z,3.08
2017-12-26T17:58:17.008Z,3.40
2017-12-26T18:00:46.115Z,3.47
2017-12-26T18:03:15.192Z,3.70
2017-12-26T18:05:44.006Z,2.85
2017-12-26T18:08:13.045Z,3.60
2017-12-26T18:10:42.461Z,3.53
2017-12-26T18:13:11.617Z,3.30
2017-12-26T18:15:39.987Z,3.35
2017-12-26T18:18:08.340Z,3.30
2017-12-26T18:20:37.739Z,3.22
2017-12-26T18:23:06.139Z,3.22
2017-12-26T18:25:35.589Z,3.50
2017-12-26T18:28:04.272Z,3.10
2017-12-26T18:30:32.684Z,2.95
2017-12-26T18:33:01.042Z,2.75
2017-12-26T18:35:29.711Z,3.05
2017-12-26T18:37:58.081Z,3.25
2017-12-26T18:40:26.455Z,3.00
2017-12-26T18:42:55.114Z,2.60
2017-12-26T18:45:23.857Z,3.00
2017-12-26T18:47:52.941Z,2.37
2017-12-26T18:50:21.738Z,3.20
2017-12-26T18:52:50.105Z,3.30
2017-12-26T18:55:18.496Z,3.35
2017-12-26T18:57:47.276Z,3.10
2017-12-26T19:00:15.756Z,3.30
2017-12-26T19:02:59.290Z,2.65
2017-12-26T19:05:27.611Z,3.03
2017-12-26T19:07:56.715Z,3.25
2017-12-26T19:10:26.137Z,3.10
2017-12-26T19:13:06.964Z,3.62
2017-12-26T19:15:35.819Z,3.20
2017-12-26T19:18:04.199Z,3.35
2017-12-26T19:20:32.540Z,3.87
2017-12-26T19:23:01.372Z,3.92
2017-12-26T19:25:29.715Z,3.62
2017-12-26T19:27:58.841Z,4.07
2017-12-26T19:30:27.465Z,3.95
2017-12-26T19:32:55.806Z,3.62
2017-12-26T19:35:24.179Z,3.58
2017-12-26T19:37:53.296Z,3.65
2017-12-26T19:40:21.695Z,4.00
2017-12-26T19:42:50.053Z,3.67
2017-12-26T19:45:18.690Z,3.97
2017-12-26T19:47:47.024Z,3.40
2017-12-26T19:50:15.445Z,4.12
2017-12-26T19:52:44.061Z,4.20
2017-12-26T19:55:12.427Z,4.22
2017-12-26T19:57:41.562Z,4.18
2017-12-26T20:00:10.539Z,4.12
2017-12-26T20:02:38.899Z,4.72
2017-12-26T20:05:07.273Z,4.57
2017-12-26T20:07:35.677Z,4.10
2017-12-26T20:10:04.071Z,4.10
2017-12-26T20:12:32.368Z,4.40
2017-12-26T20:15:01.941Z,4.10
2017-12-26T20:17:30.296Z,4.50
2017-12-26T20:19:59.386Z,3.85
2017-12-26T20:22:27.831Z,4.07
2017-12-26T20:24:56.220Z,4.12
2017-12-26T20:27:24.548Z,3.78
2017-12-26T20:30:00.444Z,4.05
2017-12-26T20:32:28.812Z,4.15
2017-12-26T20:34:57.142Z,4.55
2017-12-26T20:37:25.512Z,4.70
2017-12-26T20:39:53.842Z,4.00
2017-12-26T20:42:22.198Z,4.35
2017-12-26T20:44:50.653Z,4.55
2017-12-26T20:47:19.009Z,5.00
2017-12-26T20:49:47.515Z,3.85
2017-12-26T20:52:16.716Z,4.47
2017-12-26T20:54:45.038Z,4.50
2017-12-26T20:57:13.437Z,4.20
2017-12-26T20:59:41.841Z,4.82
2017-12-26T21:02:10.248Z,4.25
2017-12-26T21:04:38.662Z,4.93
2017-12-26T21:07:07.466Z,5.10
2017-12-26T21:09:35.783Z,5.35
2017-12-26T21:12:04.138Z,5.35
2017-12-26T21:14:32.543Z,4.35
2017-12-26T21:17:01.656Z,4.60
2017-12-26T21:19:30.026Z,5.22
2017-12-26T21:21:58.443Z,4.35
2017-12-26T21:24:26.797Z,4.97
2017-12-26T21:26:55.475Z,4.93
2017-12-26T21:29:24.398Z,4.78
2017-12-26T21:31:52.733Z,4.75
2017-12-26T21:34:21.843Z,4.82
2017-12-26T21:36:50.214Z,4.45
2017-12-26T21:39:19.311Z,4.57
2017-12-26T21:41:49.270Z,5.00
2017-12-26T21:44:17.630Z,4.55
2017-12-26T21:46:46.072Z,3.95
2017-12-26T21:49:14.460Z,4.62
2017-12-26T21:51:43.767Z,3.65
2017-12-26T21:54:12.165Z,4.50
2017-12-26T21:56:40.577Z,4.37
2017-12-26T21:59:09.027Z,4.68
2017-12-26T22:01:37.365Z,3.97
2017-12-26T22:04:05.678Z,3.55
2017-12-26T22:06:34.215Z,4.03
2017-12-26T22:09:02.514Z,4.00
2017-12-26T22:11:30.864Z,4.20
2017-12-26T22:13:59.294Z,3.50
2017-12-26T22:16:27.646Z,3.35
2017-12-26T22:18:55.984Z,3.28
2017-12-26T22:21:24.398Z,3.72
2017-12-26T22:23:52.757Z,3.65
2017-12-26T22:26:21.098Z,3.37
2017-12-26T22:28:49.464Z,3.53
2017-12-26T22:31:17.820Z,3.87
2017-12-26T22:33:46.950Z,3.90
2017-12-26T22:36:15.406Z,3.35
2017-12-26T22:38:43.799Z,3.00
2017-12-26T22:41:12.125Z,3.00
2017-12-26T22:43:40.494Z,2.75
2017-12-26T22:46:08.845Z,3.37
2017-12-26T22:48:37.204Z,3.22
2017-12-26T22:51:05.551Z,3.40
2017-12-26T22:53:33.864Z,2.50
2017-12-26T22:56:04.845Z,3.03
2017-12-26T22:58:33.347Z,2.62
2017-12-26T23:01:01.796Z,2.75
2017-12-26T23:03:30.114Z,2.87
2017-12-26T23:05:58.482Z,2.83
2017-12-26T23:08:26.829Z,2.55
2017-12-26T23:10:55.186Z,3.50
2017-12-26T23:13:23.894Z,3.00
2017-12-26T23:15:57.699Z,2.10
2017-12-26T23:18:26.205Z,3.20
2017-12-26T23:20:59.477Z,2.35
2017-12-26T23:23:33.419Z,2.85
2017-12-26T23:26:07.162Z,2.15
2017-12-26T23:28:41.049Z,2.28
2017-12-26T23:31:14.855Z,2.08
2017-12-26T23:33:48.838Z,2.72
2017-12-26T23:36:22.565Z,2.40
2017-12-26T23:38:56.310Z,2.40
2017-12-26T23:41:30.836Z,2.15
2017-12-26T23:47:10.254Z,2.72
2017-12-26T23:49:44.129Z,2.72
2017-12-26T23:52:18.064Z,2.80
2017-12-26T23:54:52.013Z,2.72
2017-12-26T23:57:26.538Z,2.78
